Capitol Logistics 997

Operating for DHL



EGNS
Isle of Man Airport
Isle Of Man, IM
EGNX
East Midlands Airport
Derby, GB

Activity Log

Date Flight Route Aircraft Duration
No Flights Yet

Route Details

Aircraft Information
Group: European Fleet
Types: A30F,A31F,B738
Route Data
Demand: L
Distance: 140nm
Duration: 1h 00m
Recm'd Route: TIMIS Q39 NOMSU Q4 WAL WAL1E
Origin Wx: EGNS 270650Z 28015G25KT 9999 FEW045 11/04 Q1023 BECMG 28014KT
Dest. Wx: EGNX 270650Z 27013KT CAVOK 11/04 Q1023
Notes:

Financial History
Total Freight: 0lbs
Average Load: 0lbs/flt
Fuel Used: 0lbs
Avg. Fuel Used: 0lbs/flt
Fuel Expense: $0
Avg. Fuel Expense: $0
Avg. Fuel Cost: $0/lbs
Total Gross Income: $0
Pilot Pay: $0
Total Expenses: $0
Total Revenue: $0
Average Revenue: $0